X  Close Metar Aviation Weather Data        LGTS Thessaloniki Macedonia International
Temperature
16°C Temperature
10°C Dewpoint
68% Humidity



Wind
1 M/S
2 MPH
4 KM/H
2 KTS



250°
WSW
Current Conditions

Partly Cloudy Partly Cloudy
Pressure 1011 (hPa) - 29.85 (inHg)
Visibility 6 (mile) - 10 (km)
Airport
Airport-code LGTS

Location: Thessaloniki Macedonia International
Distance: 85 (km)

Metar:
METAR LGTS 261520Z 25002KT 9999 SCT030 16/10 Q1011 NOSIG

Time: 26-02-2024 17:20 EET